Time;durP1;ratioP1;P1;durP2;ratioP2;P2;SDS_P1;SDS_P2;PMS_P1;PMS_P2;Temp;Humidity;BMP_temperature;BMP_pressure;BME280_temperature;BME280_humidity;BME280_pressure;Samples;Min_cycle;Max_cycle;Signal;HPM_P1;HPM_P2
2021/03/20 00:00:26;;;;;;;55.60;37.83;;;;;;;5.61;65.83;99756.25;5077233;28;20048;-76
2021/03/20 00:02:52;;;;;;;54.80;36.13;;;;;;;5.35;65.82;99714.13;5095247;28;20031;-76
2021/03/20 00:05:18;;;;;;;48.53;33.03;;;;;;;5.46;66.05;99741.94;5095044;28;20020;-76
2021/03/20 00:07:43;;;;;;;45.27;31.80;;;;;;;5.19;65.55;99704.22;5077243;28;20165;-76
2021/03/20 00:10:12;;;;;;;45.37;30.33;;;;;;;5.52;65.94;99764.97;5094847;28;20015;-76
2021/03/20 00:12:38;;;;;;;56.03;34.40;;;;;;;5.50;65.91;99754.63;5095076;28;20085;-76
2021/03/20 00:15:06;;;;;;;57.27;35.40;;;;;;;5.17;65.94;99711.38;5094993;28;20024;-76
2021/03/20 00:17:32;;;;;;;51.07;32.73;;;;;;;5.20;66.16;99746.91;5077041;28;20156;-76
2021/03/20 00:19:58;;;;;;;51.60;30.53;;;;;;;5.32;66.21;99751.06;5094859;28;20021;-76
2021/03/20 00:22:23;;;;;;;50.83;31.73;;;;;;;5.26;66.02;99757.69;5095025;28;20438;-76
2021/03/20 00:24:48;;;;;;;51.83;32.13;;;;;;;5.35;66.06;99750.78;5094966;28;20027;-77
2021/03/20 00:27:14;;;;;;;49.97;30.87;;;;;;;5.23;66.00;99738.81;5094864;28;20438;-76
2021/03/20 00:29:39;;;;;;;47.53;30.50;;;;;;;5.31;66.07;99755.47;5094964;28;20540;-77
2021/03/20 00:32:05;;;;;;;44.83;29.63;;;;;;;5.30;66.22;99755.63;5094848;28;20102;-76
2021/03/20 00:34:31;;;;;;;44.93;29.20;;;;;;;5.18;65.67;99744.44;5076897;28;20041;-77
2021/03/20 00:36:56;;;;;;;46.23;29.17;;;;;;;4.40;65.93;99615.41;5077129;28;20028;-76
2021/03/20 00:39:22;;;;;;;50.43;28.63;;;;;;;5.17;66.36;99753.25;5095156;28;20031;-76
2021/03/20 00:41:47;;;;;;;48.87;28.47;;;;;;;4.76;66.42;99692.38;5094830;28;20102;-76
2021/03/20 00:44:13;;;;;;;43.17;25.00;;;;;;;5.11;66.37;99752.00;5094942;28;20030;-77
2021/03/20 00:46:38;;;;;;;36.23;23.87;;;;;;;4.99;66.50;99733.97;5077304;28;20016;-76
2021/03/20 00:49:04;;;;;;;36.57;23.70;;;;;;;5.07;66.46;99757.66;5095103;28;20078;-76
2021/03/20 00:51:30;;;;;;;35.33;23.47;;;;;;;4.63;66.24;99693.63;5095434;28;20056;-76
2021/03/20 00:53:56;;;;;;;41.27;24.57;;;;;;;4.64;66.15;99682.19;5096873;28;20066;-77
2021/03/20 00:56:21;;;;;;;37.17;23.50;;;;;;;4.84;66.27;99717.84;5080977;28;20074;-76
2021/03/20 00:58:47;;;;;;;38.30;25.30;;;;;;;5.07;66.30;99753.25;5099689;28;20031;-76
2021/03/20 01:01:19;;;;;;;43.50;26.47;;;;;;;5.11;65.97;99748.56;5077655;28;20040;-76
2021/03/20 01:03:45;;;;;;;;;;;;;;;4.99;66.45;99747.88;5079539;28;20028;-76
2021/03/20 01:06:17;;;;;;;57.60;30.63;;;;;;;4.88;65.91;99715.78;5078430;28;19909;-77
2021/03/20 01:08:43;;;;;;;55.23;32.67;;;;;;;5.07;65.69;99744.56;5079010;28;20036;-76
2021/03/20 01:11:11;;;;;;;58.87;33.03;;;;;;;5.07;65.69;99737.56;5079215;28;20162;-76
2021/03/20 01:13:37;;;;;;;51.77;32.07;;;;;;;5.09;65.42;99740.03;5079445;28;20016;-76
2021/03/20 01:16:03;;;;;;;56.47;36.90;;;;;;;5.08;65.40;99738.38;5078348;28;20082;-76
2021/03/20 01:18:29;;;;;;;57.60;35.63;;;;;;;4.89;65.33;99728.75;5078568;28;20431;-76
2021/03/20 01:20:55;;;;;;;59.73;39.50;;;;;;;4.55;65.76;99668.16;5078785;28;20024;-76
2021/03/20 01:23:20;;;;;;;61.23;38.13;;;;;;;4.68;65.80;99707.13;5113134;23;20100;-77
2021/03/20 01:25:46;;;;;;;57.80;37.10;;;;;;;4.88;65.40;99734.94;5119622;28;20358;-76
2021/03/20 01:28:11;;;;;;;54.80;34.73;;;;;;;4.73;65.31;99715.38;5101320;28;20020;-76
2021/03/20 01:30:40;;;;;;;50.53;34.67;;;;;;;4.65;65.47;99704.78;5101043;28;20027;-76
2021/03/20 01:33:06;;;;;;;57.73;35.33;;;;;;;4.50;64.95;99669.53;5119306;28;20054;-76
2021/03/20 01:35:33;;;;;;;60.87;37.47;;;;;;;4.95;65.16;99741.28;5119138;28;20094;-76
2021/03/20 01:38:00;;;;;;;59.47;37.83;;;;;;;4.91;65.12;99736.44;5118810;28;20024;-76
2021/03/20 01:40:35;;;;;;;59.20;37.20;;;;;;;4.40;65.13;99675.53;5119304;28;20016;-76
2021/03/20 01:43:01;;;;;;;57.70;36.63;;;;;;;4.86;65.14;99743.88;5119335;28;20473;-76
2021/03/20 01:45:32;;;;;;;57.27;37.07;;;;;;;4.81;65.10;99752.13;5118677;28;20058;-76
2021/03/20 01:48:22;;;;;;;58.23;37.13;;;;;;;4.16;64.97;99654.19;5119062;28;20023;-76
2021/03/20 01:50:55;;;;;;;56.23;35.87;;;;;;;4.37;64.83;99701.13;5108857;28;20028;-76
2021/03/20 01:53:30;;;;;;;53.03;32.67;;;;;;;4.69;64.72;99745.38;5118472;28;20449;-76
2021/03/20 01:55:58;;;;;;;56.03;34.10;;;;;;;4.47;64.93;99712.44;5100435;28;20073;-77
2021/03/20 01:58:24;;;;;;;47.30;31.27;;;;;;;4.68;64.97;99756.81;5118782;28;20027;-76
2021/03/20 02:00:56;;;;;;;49.23;31.27;;;;;;;4.21;65.06;99675.50;5120548;28;20019;-76
2021/03/20 02:03:22;;;;;;;50.60;29.75;;;;;;;4.52;64.80;99738.19;5100814;28;20106;-76
2021/03/20 02:05:48;;;;;;;45.13;28.77;;;;;;;4.71;65.09;99761.75;5118897;28;20444;-76
2021/03/20 02:08:18;;;;;;;43.37;29.60;;;;;;;4.71;65.10;99754.75;5116791;28;20100;-76
2021/03/20 02:10:46;;;;;;;43.43;28.90;;;;;;;4.40;64.95;99719.16;5100573;28;20027;-76
2021/03/20 02:13:22;;;;;;;46.27;30.53;;;;;;;4.64;64.76;99764.09;5118656;28;20378;-77
2021/03/20 02:15:52;;;;;;;48.83;31.30;;;;;;;4.55;65.15;99757.06;5118456;28;20061;-76
2021/03/20 02:19:00;;;;;;;45.67;30.20;;;;;;;4.54;64.87;99767.66;5118349;28;20027;-76
2021/03/20 02:21:35;;;;;;;47.10;30.03;;;;;;;4.53;65.11;99766.00;5099034;28;20046;-76
2021/03/20 02:24:37;;;;;;;43.90;29.37;;;;;;;4.50;64.82;99766.25;5100042;28;20045;-77
2021/03/20 02:27:13;;;;;;;41.90;28.17;;;;;;;4.45;64.93;99761.41;5099503;28;20399;-76
2021/03/20 02:29:50;;;;;;;40.40;26.27;;;;;;;4.39;64.87;99775.00;5117568;28;20027;-76
2021/03/20 02:32:35;;;;;;;37.80;26.40;;;;;;;4.16;65.29;99753.47;5118692;28;20422;-76
2021/03/20 02:35:06;;;;;;;45.27;28.37;;;;;;;4.36;65.20;99777.88;5117355;28;20068;-76
2021/03/20 02:37:52;;;;;;;39.22;24.05;;;;;;;3.67;65.33;99671.44;5117866;28;20027;-76
2021/03/20 02:40:33;;;;;;;34.87;23.93;;;;;;;4.31;65.56;99765.22;5118132;28;20080;-76
2021/03/20 02:43:15;;;;;;;34.20;23.87;;;;;;;4.17;65.59;99752.50;5117326;28;20034;-76
2021/03/20 02:45:44;;;;;;;38.45;25.27;;;;;;;4.37;65.52;99756.84;5117447;28;20054;-76
2021/03/20 02:48:28;;;;;;;39.13;25.37;;;;;;;4.44;65.08;99760.56;5098990;28;20023;-76
2021/03/20 02:51:05;;;;;;;35.30;24.63;;;;;;;4.53;65.27;99772.06;5117126;28;20021;-76
2021/03/20 02:53:58;;;;;;;30.70;22.07;;;;;;;4.28;65.17;99725.44;5117196;28;20024;-76
2021/03/20 02:56:28;;;;;;;32.90;23.03;;;;;;;4.57;65.49;99759.53;5117081;28;20024;-76
2021/03/20 02:59:04;;;;;;;33.53;22.23;;;;;;;4.62;65.12;99757.34;5099082;28;20388;-76
2021/03/20 03:01:32;;;;;;;30.07;21.73;;;;;;;4.45;64.81;99730.84;5116969;28;20537;-76
2021/03/20 03:04:00;;;;;;;32.07;22.10;;;;;;;4.67;65.18;99771.66;5098842;28;20047;-76
2021/03/20 03:06:31;;;;;;;32.70;22.67;;;;;;;4.73;64.94;99772.91;5117066;28;20020;-76
2021/03/20 03:09:05;;;;;;;34.17;23.67;;;;;;;4.58;64.99;99748.13;5098970;28;20031;-76
2021/03/20 03:11:38;;;;;;;33.50;23.00;;;;;;;4.28;65.28;99687.06;5116411;28;20035;-76
2021/03/20 03:14:09;;;;;;;32.33;24.00;;;;;;;4.79;65.00;99775.81;5099074;28;20069;-76
2021/03/20 03:16:47;;;;;;;38.07;25.53;;;;;;;4.68;64.53;99747.16;5116852;28;20026;-76
2021/03/20 03:19:36;;;;;;;42.33;27.50;;;;;;;4.84;65.09;99783.25;5098054;28;20020;-76
2021/03/20 03:22:06;;;;;;;30.80;20.93;;;;;;;4.82;64.97;99786.97;5084757;28;20047;-76
2021/03/20 03:24:36;;;;;;;30.00;21.27;;;;;;;4.81;64.91;99785.31;5117100;28;20015;-76
2021/03/20 03:27:07;;;;;;;29.63;20.90;;;;;;;4.78;64.78;99800.31;5116420;28;20102;-76
2021/03/20 03:29:35;;;;;;;25.50;19.87;;;;;;;4.63;65.17;99780.75;5116718;28;20088;-76
2021/03/20 03:32:16;;;;;;;28.97;19.57;;;;;;;4.72;65.02;99792.19;5116361;28;20438;-76
2021/03/20 03:34:57;;;;;;;29.53;19.50;;;;;;;4.70;65.05;99801.97;5098318;28;20341;-76
2021/03/20 03:37:39;;;;;;;29.60;19.93;;;;;;;4.69;65.35;99797.69;5116993;28;20035;-76
2021/03/20 03:40:28;;;;;;;29.75;20.55;;;;;;;4.69;65.35;99802.91;5116414;28;20460;-76
2021/03/20 03:42:54;;;;;;;38.37;24.47;;;;;;;4.57;65.17;99765.59;5116912;28;20054;-76
2021/03/20 03:45:21;;;;;;;46.77;30.40;;;;;;;4.40;64.74;99743.50;5098589;28;20020;-76
2021/03/20 03:47:48;;;;;;;38.30;25.93;;;;;;;4.69;65.01;99782.81;5116473;28;20429;-76
2021/03/20 03:50:33;;;;;;;34.07;23.63;;;;;;;4.60;64.65;99764.50;5116578;28;20031;-76
2021/03/20 03:53:00;;;;;;;30.17;22.40;;;;;;;4.65;64.64;99780.59;5116416;28;20509;-76
2021/03/20 03:55:26;;;;;;;29.30;19.70;;;;;;;4.65;65.09;99785.84;5098555;28;20067;-77
2021/03/20 03:57:58;;;;;;;29.37;19.23;;;;;;;4.56;64.96;99770.94;5116612;28;20050;-77
2021/03/20 04:00:26;;;;;;;29.83;19.95;;;;;;;4.52;64.91;99777.41;5098542;28;20055;-76
2021/03/20 04:03:31;;;;;;;27.93;18.70;;;;;;;4.51;65.03;99781.81;5122242;22;20050;-76
2021/03/20 04:06:20;;;;;;;27.80;18.90;;;;;;;4.47;65.32;99783.88;5098933;28;20365;-76
2021/03/20 04:08:54;;;;;;;32.10;20.57;;;;;;;4.50;65.48;99782.78;5116094;28;20466;-76
2021/03/20 04:11:24;;;;;;;31.87;21.00;;;;;;;4.18;64.90;99735.06;5098158;28;20032;-76
2021/03/20 04:14:00;;;;;;;33.33;22.57;;;;;;;4.23;65.36;99751.97;5115880;28;20421;-76
2021/03/20 04:16:40;;;;;;;35.40;22.50;;;;;;;4.18;65.25;99751.56;5115998;28;20127;-76
2021/03/20 04:19:29;;;;;;;33.73;21.53;;;;;;;4.43;65.65;99792.06;5116062;28;20027;-76
2021/03/20 04:22:03;;;;;;;69.13;36.70;;;;;;;4.17;65.32;99755.13;5116196;28;20023;-76
2021/03/20 04:24:49;;;;;;;52.57;30.60;;;;;;;4.40;65.46;99794.97;5115920;28;20028;-76
2021/03/20 04:27:22;;;;;;;41.47;26.07;;;;;;;4.13;65.68;99785.09;5114580;28;20027;-76
2021/03/20 04:30:08;;;;;;;39.20;26.00;;;;;;;4.22;65.74;99786.91;5115537;28;20102;-76
2021/03/20 04:32:56;;;;;;;33.47;23.00;;;;;;;4.37;65.90;99797.84;5115767;28;20027;-76
2021/03/20 04:35:28;;;;;;;35.97;23.57;;;;;;;3.86;65.45;99716.91;5115700;28;20042;-76
2021/03/20 04:37:56;;;;;;;33.58;23.42;;;;;;;4.13;65.34;99754.56;5097992;28;20394;-76
2021/03/20 04:40:50;;;;;;;36.80;23.40;;;;;;;4.45;65.26;99813.69;5115691;28;20040;-76
2021/03/20 04:43:23;;;;;;;30.63;21.87;;;;;;;4.42;65.37;99811.34;5090623;28;20063;-76
2021/03/20 04:46:14;;;;;;;33.50;22.67;;;;;;;4.47;65.51;99817.84;5116024;28;20051;-76
2021/03/20 04:48:43;;;;;;;33.23;22.53;;;;;;;4.52;65.70;99817.47;5116067;28;20035;-77
2021/03/20 04:51:23;;;;;;;33.30;23.47;;;;;;;4.44;65.12;99799.78;5115893;28;20108;-76
2021/03/20 04:54:03;;;;;;;36.83;23.53;;;;;;;4.53;65.33;99811.28;5116060;28;20039;-76
2021/03/20 04:56:35;;;;;;;31.10;22.90;;;;;;;4.12;65.56;99752.09;5115709;28;20028;-77
2021/03/20 04:59:07;;;;;;;35.70;24.23;;;;;;;4.61;65.35;99802.75;5115842;28;20031;-76
2021/03/20 05:01:35;;;;;;;35.38;23.95;;;;;;;4.62;65.25;99812.25;5115758;28;20023;-76
2021/03/20 05:04:08;;;;;;;43.00;27.40;;;;;;;4.36;64.93;99781.31;5115247;28;20167;-76
2021/03/20 05:06:35;;;;;;;42.77;27.27;;;;;;;4.34;65.24;99764.94;5096978;28;20054;-76
2021/03/20 05:09:06;;;;;;;44.07;27.90;;;;;;;4.65;65.09;99820.66;5115111;28;20035;-76
2021/03/20 05:11:38;;;;;;;40.20;27.50;;;;;;;4.76;65.15;99824.97;5115196;28;20102;-76
2021/03/20 05:14:20;;;;;;;43.33;27.92;;;;;;;4.70;65.16;99801.97;5114939;28;20035;-77
2021/03/20 05:17:00;;;;;;;37.73;25.67;;;;;;;4.79;65.25;99815.06;5115174;28;20038;-76
2021/03/20 05:19:28;;;;;;;36.00;24.83;;;;;;;4.85;65.12;99813.69;5114903;28;20151;-76
2021/03/20 05:21:55;;;;;;;40.50;25.40;;;;;;;4.89;64.87;99812.47;5096902;28;20483;-76
2021/03/20 05:24:34;;;;;;;40.60;26.60;;;;;;;4.43;64.88;99732.78;5096627;28;20039;-76
2021/03/20 05:27:00;;;;;;;42.00;26.47;;;;;;;4.80;64.55;99792.34;5114037;28;20410;-76
2021/03/20 05:29:26;;;;;;;46.30;30.67;;;;;;;5.05;64.63;99820.59;5115035;28;20326;-75
2021/03/20 05:31:52;;;;;;;55.63;36.63;;;;;;;4.82;64.37;99805.28;5114754;28;20031;-76
2021/03/20 05:34:35;;;;;;;72.47;43.23;;;;;;;5.08;64.66;99825.56;5114866;28;20401;-77
2021/03/20 05:37:00;;;;;;;77.50;44.50;;;;;;;4.94;64.48;99815.50;5113691;28;20024;-76
2021/03/20 05:39:26;;;;;;;101.17;52.13;;;;;;;4.97;64.53;99804.75;5114763;28;20108;-75
2021/03/20 05:42:15;;;;;;;107.23;56.30;;;;;;;5.15;64.31;99830.25;5115000;28;20033;-76
2021/03/20 05:45:15;;;;;;;81.37;46.87;;;;;;;4.69;64.53;99759.28;5118474;28;20345;-76
2021/03/20 05:47:43;;;;;;;53.67;33.37;;;;;;;5.12;64.28;99826.13;5119125;28;20096;-75
2021/03/20 05:50:21;;;;;;;46.23;29.70;;;;;;;5.14;64.48;99824.19;5100667;28;20027;-76
2021/03/20 05:52:54;;;;;;;41.40;27.40;;;;;;;5.16;64.16;99826.69;5100158;28;20027;-75
2021/03/20 05:55:27;;;;;;;47.40;28.30;;;;;;;5.17;64.13;99830.94;5116853;28;20032;-75
2021/03/20 05:58:15;;;;;;;43.93;27.13;;;;;;;5.17;64.19;99833.56;5118255;28;20443;-76
2021/03/20 06:00:52;;;;;;;42.83;29.10;;;;;;;5.13;64.09;99835.63;5118056;28;20075;-76
2021/03/20 06:03:46;;;;;;;48.63;30.77;;;;;;;4.47;64.35;99717.69;5117827;28;20457;-75
2021/03/20 06:06:37;;;;;;;47.43;31.27;;;;;;;5.20;64.16;99830.69;5117002;28;20085;-75
2021/03/20 06:09:39;;;;;;;50.27;32.27;;;;;;;5.22;63.93;99823.53;5117901;28;20106;-75
2021/03/20 06:12:28;;;;;;;49.63;31.45;;;;;;;5.25;64.04;99831.94;5099831;28;20489;-75
2021/03/20 06:15:12;;;;;;;49.90;33.67;;;;;;;5.23;63.79;99833.88;5117868;28;20114;-77
2021/03/20 06:17:44;;;;;;;50.37;32.20;;;;;;;5.31;63.73;99844.50;5099721;28;20031;-76
2021/03/20 06:20:18;;;;;;;60.72;39.95;;;;;;;5.22;63.82;99844.47;5117648;28;20376;-77
2021/03/20 06:23:07;;;;;;;86.83;52.30;;;;;;;5.14;63.72;99833.84;5117618;28;20049;-76
2021/03/20 06:25:44;;;;;;;76.17;48.73;;;;;;;5.22;63.82;99847.09;5117807;28;20028;-77
2021/03/20 06:28:12;;;;;;;64.27;39.03;;;;;;;4.92;64.20;99791.25;5099317;28;20027;-77
2021/03/20 06:30:41;;;;;;;56.90;36.27;;;;;;;5.35;63.79;99850.28;5117499;28;20026;-77
2021/03/20 06:33:28;;;;;;;51.27;32.60;;;;;;;5.48;63.58;99844.78;5099185;28;20030;-75
2021/03/20 06:35:59;;;;;;;53.63;34.40;;;;;;;5.50;63.24;99835.81;5117309;28;20023;-77
2021/03/20 06:38:48;;;;;;;62.95;37.22;;;;;;;5.64;63.27;99848.47;5117212;28;20036;-77
2021/03/20 06:41:27;;;;;;;150.60;72.27;;;;;;;5.67;63.05;99850.81;5098554;28;20027;-77
2021/03/20 06:44:00;;;;;;;126.90;63.17;;;;;;;5.70;63.08;99850.53;5116848;28;20417;-77
2021/03/20 06:46:30;;;;;;;83.07;47.70;;;;;;;5.74;63.24;99845.84;5116995;28;20019;-77
2021/03/20 06:48:57;;;;;;;59.30;35.27;;;;;;;5.58;62.71;99820.22;5098958;28;20425;-77
2021/03/20 06:51:23;;;;;;;56.33;34.40;;;;;;;5.69;62.77;99843.66;5116728;28;20024;-78
2021/03/20 06:53:54;;;;;;;64.57;36.80;;;;;;;5.84;63.10;99872.88;5116489;28;20374;-77
2021/03/20 06:56:20;;;;;;;56.40;33.80;;;;;;;5.39;62.69;99771.31;5116960;28;20024;-76
2021/03/20 06:58:46;;;;;;;49.20;32.47;;;;;;;5.90;62.83;99851.38;5116930;28;20039;-75
2021/03/20 07:01:33;;;;;;;48.93;32.17;;;;;;;5.94;62.58;99849.31;5115590;28;20447;-76
2021/03/20 07:04:07;;;;;;;45.03;29.30;;;;;;;5.98;62.61;99848.91;5116539;28;20059;-75
2021/03/20 07:07:10;;;;;;;51.93;31.43;;;;;;;6.04;62.03;99847.50;5117025;28;20388;-76
2021/03/20 07:09:40;;;;;;;50.60;32.33;;;;;;;6.03;62.08;99840.63;5116498;28;20081;-77
2021/03/20 07:12:12;;;;;;;48.00;32.50;;;;;;;5.66;61.82;99770.59;5116411;28;20026;-78
2021/03/20 07:14:54;;;;;;;50.23;32.80;;;;;;;6.23;61.71;99838.78;5116424;28;20103;-76
2021/03/20 07:17:26;;;;;;;62.10;37.78;;;;;;;6.15;61.64;99844.72;5116187;28;20106;-76
2021/03/20 07:20:01;;;;;;;53.75;33.13;;;;;;;6.11;61.95;99832.88;5116473;28;20043;-78
2021/03/20 07:22:31;;;;;;;52.80;33.57;;;;;;;6.30;61.47;99842.47;5116156;28;20106;-76
2021/03/20 07:24:59;;;;;;;57.03;34.60;;;;;;;6.42;62.04;99853.59;5098199;28;20035;-77
2021/03/20 07:27:34;;;;;;;51.00;34.40;;;;;;;6.20;61.92;99818.09;5116005;28;20037;-76
2021/03/20 07:30:46;;;;;;;47.53;31.20;;;;;;;6.56;62.32;99861.00;5116047;28;20040;-75
2021/03/20 07:33:41;;;;;;;56.00;34.43;;;;;;;6.27;61.54;99796.38;5087502;28;20032;-74
2021/03/20 07:36:25;;;;;;;49.77;32.50;;;;;;;6.74;62.22;99853.22;5113345;28;20285;-77
2021/03/20 07:39:15;;;;;;;47.57;31.23;;;;;;;6.79;61.75;99848.34;5097940;28;20086;-77
2021/03/20 07:41:46;;;;;;;46.60;31.00;;;;;;;6.78;61.82;99847.53;5115971;28;20023;-75
2021/03/20 07:44:11;;;;;;;49.97;30.80;;;;;;;6.76;61.34;99838.97;5115819;28;20027;-77
2021/03/20 07:46:38;;;;;;;44.70;29.80;;;;;;;6.46;61.19;99777.13;5115826;28;20035;-76
2021/03/20 07:49:06;;;;;;;45.35;30.60;;;;;;;6.83;61.55;99819.06;5115744;28;20027;-74
2021/03/20 07:51:45;;;;;;;43.97;30.07;;;;;;;7.12;61.98;99849.53;5115776;28;20030;-76
2021/03/20 07:54:28;;;;;;;43.03;29.47;;;;;;;7.23;61.24;99844.91;5097551;28;20028;-76
2021/03/20 07:56:54;;;;;;;40.47;26.75;;;;;;;7.36;60.61;99854.22;5097589;28;20024;-75
2021/03/20 07:59:22;;;;;;;40.27;27.57;;;;;;;7.10;60.61;99806.84;5097378;28;20035;-75
2021/03/20 08:01:52;;;;;;;43.50;29.92;;;;;;;7.43;60.94;99837.72;5115517;28;20098;-75
2021/03/20 08:04:17;;;;;;;35.88;24.50;;;;;;;7.56;60.68;99846.06;5115539;28;20055;-75
2021/03/20 08:06:50;;;;;;;50.63;29.15;;;;;;;7.63;60.29;99848.91;5115625;28;20078;-75
2021/03/20 08:09:18;;;;;;;37.67;24.33;;;;;;;7.70;59.94;99851.75;5115285;28;20027;-75
2021/03/20 08:11:46;;;;;;;33.22;23.50;;;;;;;7.81;59.42;99862.84;5115460;28;20024;-75
2021/03/20 08:14:32;;;;;;;38.63;24.92;;;;;;;7.62;59.70;99811.28;5097050;28;20027;-75
2021/03/20 08:16:58;;;;;;;35.47;23.00;;;;;;;7.60;59.30;99788.75;5114140;28;20077;-75
2021/03/20 08:19:24;;;;;;;32.75;22.13;;;;;;;7.98;58.70;99838.31;5114213;28;20020;-76
2021/03/20 08:22:23;;;;;;;32.30;22.50;;;;;;;8.12;58.85;99857.97;5115403;28;20054;-75
2021/03/20 08:25:28;;;;;;;31.52;22.00;;;;;;;8.18;59.03;99853.94;5097095;28;20031;-75
2021/03/20 08:28:06;;;;;;;30.67;21.13;;;;;;;8.25;58.98;99840.00;5115318;28;20051;-75
2021/03/20 08:30:43;;;;;;;32.35;21.90;;;;;;;8.40;58.81;99844.72;5115034;28;20046;-75
2021/03/20 08:33:37;;;;;;;32.30;22.23;;;;;;;8.55;58.49;99846.59;5096851;28;20391;-75
2021/03/20 08:36:09;;;;;;;32.03;22.45;;;;;;;8.70;58.33;99846.00;5115048;28;20023;-75
2021/03/20 08:38:53;;;;;;;33.95;23.35;;;;;;;8.82;57.93;99848.19;5115193;28;20030;-74
2021/03/20 08:41:37;;;;;;;35.03;24.55;;;;;;;8.95;57.45;99842.50;5114884;28;20027;-75
2021/03/20 08:44:22;;;;;;;40.97;27.40;;;;;;;9.09;57.06;99846.31;5115078;28;20315;-75
2021/03/20 08:47:12;;;;;;;32.65;24.35;;;;;;;9.21;56.75;99845.03;5113888;28;20032;-74
2021/03/20 08:49:53;;;;;;;37.38;26.73;;;;;;;9.05;56.57;99800.22;5114926;28;20031;-75
2021/03/20 08:52:32;;;;;;;31.27;22.90;;;;;;;9.40;56.51;99854.44;5114745;28;20035;-75
2021/03/20 08:55:29;;;;;;;27.50;19.63;;;;;;;9.34;56.74;99852.47;5096918;28;20330;-74
2021/03/20 08:58:22;;;;;;;30.60;20.15;;;;;;;9.51;56.23;99852.31;5114941;28;20043;-74
2021/03/20 09:00:51;;;;;;;35.63;24.33;;;;;;;9.29;56.46;99791.53;5115049;28;20040;-75
2021/03/20 09:03:21;;;;;;;36.45;23.50;;;;;;;9.56;56.45;99838.63;5114532;28;20056;-75
2021/03/20 09:05:53;;;;;;;32.83;23.75;;;;;;;9.56;56.99;99851.81;5115005;28;20103;-75
2021/03/20 09:08:24;;;;;;;33.33;22.80;;;;;;;9.19;56.18;99773.22;5114772;28;20019;-74
2021/03/20 09:11:04;;;;;;;29.25;21.17;;;;;;;9.63;56.37;99844.06;5114664;28;20030;-75
2021/03/20 09:13:47;;;;;;;22.20;16.05;;;;;;;9.44;56.64;99805.69;5114748;28;20410;-75
2021/03/20 09:16:43;;;;;;;24.02;17.90;;;;;;;9.73;56.28;99839.50;5096864;28;20088;-74
2021/03/20 09:19:22;;;;;;;21.85;16.67;;;;;;;9.48;56.21;99812.28;5118415;28;20034;-75
2021/03/20 09:21:48;;;;;;;28.45;20.52;;;;;;;9.56;55.86;99831.56;5118635;28;20153;-75
2021/03/20 09:24:23;;;;;;;24.08;17.90;;;;;;;9.46;56.36;99851.97;5100465;28;20027;-75
2021/03/20 09:26:52;;;;;;;24.98;18.40;;;;;;;9.51;56.42;99843.56;5111804;28;20379;-75
2021/03/20 09:29:26;;;;;;;22.25;15.55;;;;;;;9.52;56.84;99846.06;5089809;28;20039;-75
2021/03/20 09:31:54;;;;;;;19.42;15.05;;;;;;;9.62;56.75;99842.44;5114732;28;20035;-75
2021/03/20 09:34:35;;;;;;;22.23;16.35;;;;;;;9.78;56.40;99843.28;5097834;28;20050;-75
2021/03/20 09:37:26;;;;;;;20.10;15.20;;;;;;;9.81;55.88;99836.84;5107963;28;20110;-75
2021/03/20 09:39:54;;;;;;;22.48;16.65;;;;;;;9.24;56.31;99768.28;5118229;28;20349;-75
2021/03/20 09:42:25;;;;;;;25.38;18.88;;;;;;;9.67;56.11;99837.53;5116602;28;20035;-75
2021/03/20 09:45:13;;;;;;;26.80;18.58;;;;;;;9.57;56.92;99827.09;5099687;28;20036;-75
2021/03/20 09:47:41;;;;;;;29.63;19.27;;;;;;;9.62;56.79;99823.97;5116395;28;20035;-75
2021/03/20 09:50:18;;;;;;;26.77;19.05;;;;;;;9.63;56.79;99825.63;5117055;28;20030;-75
2021/03/20 09:53:10;;;;;;;25.55;18.17;;;;;;;9.59;56.83;99817.22;5116197;28;20027;-75
2021/03/20 09:55:40;;;;;;;25.08;17.17;;;;;;;9.06;56.69;99754.44;5107305;28;20123;-75
2021/03/20 09:58:26;;;;;;;25.20;17.88;;;;;;;9.16;56.82;99768.28;5117432;28;20040;-75
2021/03/20 10:00:56;;;;;;;25.88;17.25;;;;;;;9.48;56.71;99813.09;5117576;28;20031;-75
2021/03/20 10:03:42;;;;;;;27.50;19.90;;;;;;;9.54;57.09;99809.81;5115613;28;20054;-75
2021/03/20 10:06:17;;;;;;;29.65;19.20;;;;;;;9.51;57.25;99812.78;5097370;28;20085;-75
2021/03/20 10:08:57;;;;;;;30.30;19.73;;;;;;;9.48;57.51;99807.84;5110557;28;20027;-75
2021/03/20 10:11:36;;;;;;;28.23;17.38;;;;;;;9.51;57.79;99809.31;5117578;28;20031;-75
2021/03/20 10:14:24;;;;;;;31.98;19.88;;;;;;;9.33;57.27;99777.84;5115409;28;20064;-75
2021/03/20 10:17:13;;;;;;;31.40;20.05;;;;;;;9.22;57.28;99755.28;5117506;28;20418;-75
2021/03/20 10:19:46;;;;;;;31.98;19.55;;;;;;;9.46;57.61;99804.53;5099504;28;20051;-75
2021/03/20 10:22:24;;;;;;;32.13;20.67;;;;;;;9.32;57.81;99799.09;5094646;28;20110;-75
2021/03/20 10:24:51;;;;;;;32.42;20.90;;;;;;;9.33;57.71;99801.56;5117339;28;20034;-75
2021/03/20 10:27:41;;;;;;;33.35;19.02;;;;;;;9.01;58.19;99749.69;5116064;28;20606;-75
2021/03/20 10:30:15;;;;;;;32.47;19.15;;;;;;;9.35;57.73;99794.31;5117255;28;20358;-75
2021/03/20 10:33:20;;;;;;;30.17;18.58;;;;;;;9.29;57.85;99787.06;5098895;28;20031;-75
2021/03/20 10:35:46;;;;;;;35.70;19.40;;;;;;;8.97;58.01;99740.44;5085315;28;20039;-75
2021/03/20 10:38:22;;;;;;;27.40;18.20;;;;;;;9.28;58.13;99790.69;5098927;28;20341;-75
2021/03/20 10:41:33;;;;;;;34.10;20.55;;;;;;;9.23;58.18;99793.81;5117219;28;20028;-76
2021/03/20 10:44:19;;;;;;;35.85;19.70;;;;;;;8.98;57.98;99754.44;5108722;28;20077;-76
2021/03/20 10:46:45;;;;;;;35.95;20.25;;;;;;;9.20;58.18;99794.16;5116864;28;20437;-76
2021/03/20 10:49:19;;;;;;;32.75;20.05;;;;;;;9.16;58.26;99787.56;5098549;28;20058;-76
2021/03/20 10:51:46;;;;;;;38.70;22.23;;;;;;;9.05;58.48;99779.16;5116551;28;20483;-76
2021/03/20 10:54:36;;;;;;;42.55;22.00;;;;;;;9.14;58.81;99784.25;5116547;28;20034;-76
2021/03/20 10:57:09;;;;;;;35.92;19.27;;;;;;;9.08;58.41;99781.44;5116678;28;20023;-76
2021/03/20 10:59:38;;;;;;;35.38;21.05;;;;;;;8.50;58.35;99677.81;5098692;28;20055;-76
2021/03/20 11:02:22;;;;;;;39.10;22.42;;;;;;;9.16;58.26;99782.28;5098176;28;20059;-76
2021/03/20 11:04:48;;;;;;;43.40;25.23;;;;;;;9.16;58.33;99786.72;5098502;28;20422;-76
2021/03/20 11:07:21;;;;;;;43.10;23.92;;;;;;;8.81;58.17;99730.69;5116482;28;20463;-76
2021/03/20 11:09:46;;;;;;;51.17;26.55;;;;;;;9.04;58.80;99769.59;5116576;28;20019;-76
2021/03/20 11:12:29;;;;;;;51.70;28.13;;;;;;;8.86;58.71;99743.38;5098286;28;20023;-76
2021/03/20 11:15:00;;;;;;;46.50;25.73;;;;;;;8.82;58.82;99753.41;5116295;28;20020;-76
2021/03/20 11:17:29;;;;;;;36.05;20.17;;;;;;;9.01;58.95;99765.47;5116182;28;20031;-76
2021/03/20 11:20:38;;;;;;;55.13;29.90;;;;;;;9.05;59.56;99768.59;5116305;28;20031;-75
2021/03/20 11:23:05;;;;;;;60.28;29.92;;;;;;;9.13;58.70;99761.53;5116266;28;20441;-76
2021/03/20 11:25:42;;;;;;;53.70;30.15;;;;;;;9.24;58.91;99758.59;5116033;28;20030;-75
2021/03/20 11:28:14;;;;;;;43.33;25.13;;;;;;;9.28;58.69;99750.34;5098166;28;20425;-76
2021/03/20 11:30:43;;;;;;;48.10;23.90;;;;;;;9.29;58.55;99749.38;5116382;28;20080;-76
2021/03/20 11:33:15;;;;;;;43.83;22.83;;;;;;;9.25;58.83;99740.97;5116405;28;20059;-77
2021/03/20 11:35:44;;;;;;;32.38;19.23;;;;;;;9.31;58.13;99750.84;5116131;28;20421;-79
2021/03/20 11:38:14;;;;;;;33.45;19.38;;;;;;;9.38;58.00;99732.56;5097896;28;20034;-76
2021/03/20 11:40:43;;;;;;;34.97;20.65;;;;;;;9.29;57.99;99705.41;5115786;28;20054;-75
2021/03/20 11:43:23;;;;;;;32.95;20.42;;;;;;;9.48;58.19;99712.94;5115931;28;20032;-76
2021/03/20 11:45:51;;;;;;;30.48;20.23;;;;;;;9.43;57.75;99686.28;5115838;28;20451;-76
2021/03/20 11:48:23;;;;;;;30.52;20.73;;;;;;;9.62;57.62;99723.81;5097470;28;20401;-76
2021/03/20 11:50:57;;;;;;;43.75;24.75;;;;;;;9.35;57.65;99669.66;5115754;28;20045;-76
2021/03/20 11:53:41;;;;;;;30.58;21.23;;;;;;;9.66;57.71;99710.16;5115598;28;20110;-77
2021/03/20 11:56:29;;;;;;;30.55;20.48;;;;;;;9.67;58.08;99706.53;5115547;28;20041;-75
2021/03/20 11:59:01;;;;;;;32.03;21.52;;;;;;;9.65;57.95;99695.28;5115598;28;20106;-75
2021/03/20 12:01:30;;;;;;;28.42;20.33;;;;;;;9.68;57.96;99705.53;5115553;28;20189;-75